Hauptseite
METAR-TAF:

METAR-TAF

Flughäfen :

Port Hawkesbury, Neuschottland, Kanada

Breite: 45-40N, Länge: 061-23W, Höhe: 114 m

Beobachtung

Neuester Wetterbericht von vor 18 Minuten, um 10:31 UTC
Wind 12 kt aus West/Nordwest, Böen bis zu 24 kt, variierte zwischen West und Nordwest
Temperatur 0°C
Luftfeuchtigkeit 69%
Luftdruck 1018 hPa
Sichtweite: 14.5 km
Leicht bewölkt in der Höhe von 1400 ft
Durchbrochene Bewölkung in der Höhe von 2500 ft
Geschlossene Wolkendecke in der Höhe von 3100 ft

METAR: CYPD 181031Z AUTO 30012G24KT 260V320 9SM FEW014 BKN025 OVC031 M00/M05 A3005 RMK SLP183

Zeit: 06:49 (10:49 UTC)


TAF: fehlend

Wetterbeobachtungen und Prognosen von mehr als 4000 Flughäfen (METAR und TAF Bericht).

Die verfügbaren Stationen werden durch gelbe und rote Markierungen auf der Karte dargestellt.

Führen Sie die Maus auf sie, um den Namen der Station zu sehen.

Darauf klicken, um die Beobachtung von Wetterbeobachtungen und Prognosen zu sehen.

Um die Karte zu ändern : klicken Sie auf den grünen Tasten mit einem schwarzen Kreuz Zum Vergrößern, auf den grünen Button mit einem Gedankenstrich zu verkleinern, oder auf die grünen Pfeile für benachbarte Karten.


METAR-TAF: